New Salem, North Dakota
Current Conditions -  °F | °C
As of 3:35 AM on Sunday 21 Dec 2014 (Local Time) from KD57 Reporting Station
Overcast Overcast  
Wind Chill: 20°   Ceiling: 7500
Heat Index: 27°   Visibility: 10mi
Dew Point: 23°   Wind: 6mph
Humidity: 86%   Direction: 190°S
Pressure: 29.65"   Gusts: NA
Location:  46.85°N, 101.41°W
Report Text: KD57 211035Z AUTO 19005KT 10SM OVC075 M03/M05 A2965 RMK AO2 TSNO
Loading
Personal Weather Stations






























Interactive Weather Map New forecast layout! Learn more

10-Day Weather Forecast

Advertisements
Track Severe Weather on mobile